Time;durP1;ratioP1;P1;durP2;ratioP2;P2;SDS_P1;SDS_P2;PMS_P1;PMS_P2;Temp;Humidity;BMP_temperature;BMP_pressure;BME280_temperature;BME280_humidity;BME280_pressure;Samples;Min_cycle;Max_cycle;Signal;HPM_P1;HPM_P2
2024/03/09 00:02:07;;;;;;;51.43;25.17;;;;;;;1.25;100.00;100846.44;5032379;28;20200;-71
2024/03/09 00:04:33;;;;;;;50.17;23.80;;;;;;;1.25;100.00;100851.66;5030993;28;20216;-71
2024/03/09 00:07:01;;;;;;;45.77;24.33;;;;;;;1.25;100.00;100843.84;5030866;28;20587;-71
2024/03/09 00:09:27;;;;;;;53.23;25.43;;;;;;;1.24;100.00;100846.72;5037623;28;20218;-71
2024/03/09 00:11:54;;;;;;;56.97;26.67;;;;;;;1.24;100.00;100841.50;5036414;28;20199;-71
2024/03/09 00:14:20;;;;;;;52.83;25.10;;;;;;;1.22;100.00;100839.19;5038077;28;20734;-71
2024/03/09 00:16:46;;;;;;;51.87;25.67;;;;;;;1.21;100.00;100840.19;5034830;28;20203;-71
2024/03/09 00:19:15;;;;;;;53.27;24.53;;;;;;;1.21;100.00;100836.84;5038649;28;20210;-71
2024/03/09 00:21:41;;;;;;;52.93;26.83;;;;;;;1.19;100.00;100831.13;5035404;28;20659;-71
2024/03/09 00:24:09;;;;;;;47.77;25.17;;;;;;;1.18;100.00;100832.13;5030179;28;20234;-71
2024/03/09 00:26:35;;;;;;;52.57;26.30;;;;;;;1.16;100.00;100824.63;5033056;28;20543;-71
2024/03/09 00:29:02;;;;;;;51.10;24.30;;;;;;;1.15;100.00;100825.63;5030717;28;20709;-71
2024/03/09 00:31:29;;;;;;;52.67;24.77;;;;;;;1.15;100.00;100828.22;5026374;28;20205;-71
2024/03/09 00:33:57;;;;;;;53.57;25.97;;;;;;;1.14;100.00;100825.91;5028843;28;20222;-71
2024/03/09 00:36:23;;;;;;;54.37;25.43;;;;;;;1.13;100.00;100822.50;5040409;28;20203;-71
2024/03/09 00:38:50;;;;;;;55.23;26.30;;;;;;;1.11;100.00;100821.22;5038484;28;20199;-71
2024/03/09 00:41:18;;;;;;;53.63;26.20;;;;;;;1.08;100.00;100804.31;5040186;28;20270;-71
2024/03/09 00:43:46;;;;;;;50.13;25.90;;;;;;;1.07;100.00;100814.94;5034956;28;20579;-71
2024/03/09 00:46:12;;;;;;;57.90;27.30;;;;;;;1.05;100.00;100819.63;5031665;28;20200;-71
2024/03/09 00:48:39;;;;;;;56.97;28.87;;;;;;;1.03;100.00;100801.69;5035745;28;20212;-71
2024/03/09 00:51:07;;;;;;;51.77;25.23;;;;;;;1.02;100.00;100796.75;5030242;28;20562;-71
2024/03/09 00:53:33;;;;;;;57.93;26.77;;;;;;;0.99;100.00;100795.44;5033140;28;20273;-71
2024/03/09 00:56:00;;;;;;;53.47;26.20;;;;;;;0.98;100.00;100795.69;5035200;28;20214;-71
2024/03/09 00:58:28;;;;;;;55.63;27.67;;;;;;;0.96;100.00;100782.16;5036952;28;20572;-71
2024/03/09 01:00:54;;;;;;;56.97;27.17;;;;;;;0.94;100.00;100784.25;5033427;28;20203;-71
2024/03/09 01:03:21;;;;;;;61.17;29.00;;;;;;;0.91;100.00;100775.16;5031187;28;20293;-71
2024/03/09 01:05:48;;;;;;;55.73;27.20;;;;;;;0.90;100.00;100775.41;5047104;28;20199;-71
2024/03/09 01:08:14;;;;;;;57.83;27.30;;;;;;;0.89;100.00;100779.06;5029609;28;20208;-71
2024/03/09 01:10:40;;;;;;;57.53;27.57;;;;;;;0.89;100.00;100779.06;5030030;28;20200;-71
2024/03/09 01:13:08;;;;;;;61.43;27.57;;;;;;;0.88;100.00;100772.28;5033113;28;20598;-71
2024/03/09 01:15:35;;;;;;;64.53;27.43;;;;;;;0.88;100.00;100780.09;5031337;28;20558;-71
2024/03/09 01:18:02;;;;;;;56.43;27.33;;;;;;;0.85;100.00;100768.38;5033155;28;20192;-71
2024/03/09 01:20:29;;;;;;;59.17;25.80;;;;;;;0.83;100.00;100774.88;5036166;28;20207;-71
2024/03/09 01:22:55;;;;;;;59.50;28.07;;;;;;;0.82;100.00;100763.69;5051423;28;20199;-71
2024/03/09 01:25:22;;;;;;;61.97;28.63;;;;;;;0.81;100.00;100764.72;5034277;28;20228;-71
2024/03/09 01:27:48;;;;;;;60.83;27.73;;;;;;;0.79;100.00;100758.22;5034792;28;20219;-71
2024/03/09 01:30:15;;;;;;;55.60;27.73;;;;;;;0.77;100.00;100758.47;5042153;28;20214;-71
2024/03/09 01:32:43;;;;;;;57.73;28.23;;;;;;;0.76;100.00;100764.72;5043959;28;20214;-71
2024/03/09 01:35:12;;;;;;;59.50;28.93;;;;;;;0.72;100.00;100766.25;5033653;28;20223;-71
2024/03/09 01:37:38;;;;;;;57.37;28.40;;;;;;;0.71;100.00;100758.72;5038749;28;20214;-71
2024/03/09 01:40:07;;;;;;;61.97;28.97;;;;;;;0.70;100.00;100757.16;5044038;28;20191;-71
2024/03/09 01:42:33;;;;;;;64.60;30.53;;;;;;;0.67;100.00;100755.06;5029587;28;20208;-71
2024/03/09 01:45:04;;;;;;;62.27;29.77;;;;;;;0.65;100.00;100754.53;5031143;28;20599;-71
2024/03/09 01:47:30;;;;;;;63.17;29.33;;;;;;;0.63;100.00;100761.81;5043136;28;20224;-71
2024/03/09 01:49:58;;;;;;;61.27;28.37;;;;;;;0.61;100.00;100749.09;5033046;28;20562;-71
2024/03/09 01:52:31;;;;;;;62.20;29.27;;;;;;;0.59;100.00;100748.56;5039270;28;20200;-71
2024/03/09 01:54:59;;;;;;;66.23;30.63;;;;;;;0.57;100.00;100742.06;5033735;28;20232;-71
2024/03/09 01:57:26;;;;;;;66.73;29.83;;;;;;;0.58;100.00;100730.63;5038470;28;20202;-71
2024/03/09 01:59:54;;;;;;;62.63;28.60;;;;;;;0.54;100.00;100730.38;5038246;28;20215;-71
2024/03/09 02:02:22;;;;;;;71.43;31.43;;;;;;;0.52;100.00;100736.84;5040282;28;20210;-71
2024/03/09 02:04:49;;;;;;;69.47;30.67;;;;;;;0.52;100.00;100729.06;5039817;28;20756;-71
2024/03/09 02:07:17;;;;;;;75.33;31.40;;;;;;;0.50;100.00;100728.53;5048291;28;20199;-71
2024/03/09 02:09:43;;;;;;;66.60;31.57;;;;;;;0.46;100.00;100724.88;5040561;28;20220;-71
2024/03/09 02:12:10;;;;;;;62.37;29.30;;;;;;;0.43;100.00;100723.56;5039320;28;20213;-71
2024/03/09 02:14:37;;;;;;;68.33;29.40;;;;;;;0.41;100.00;100724.84;5030914;28;20216;-72
2024/03/09 02:17:07;;;;;;;69.37;32.17;;;;;;;0.38;100.00;100726.13;5035774;28;20221;-71
2024/03/09 02:19:34;;;;;;;73.87;32.10;;;;;;;0.37;100.00;100721.97;5031584;28;20204;-71
2024/03/09 02:22:00;;;;;;;66.60;31.63;;;;;;;0.34;100.00;100721.72;5033523;28;20196;-71
2024/03/09 02:24:31;;;;;;;68.60;31.53;;;;;;;0.32;100.00;100727.16;5034219;28;20235;-72
2024/03/09 02:26:59;;;;;;;68.33;30.93;;;;;;;0.30;100.00;100720.66;5041555;28;20223;-71
2024/03/09 02:29:26;;;;;;;72.20;30.93;;;;;;;0.28;100.00;100720.13;5040236;28;20278;-71
2024/03/09 02:31:55;;;;;;;67.27;30.33;;;;;;;0.27;100.00;100710.78;5036269;28;20203;-71
2024/03/09 02:34:22;;;;;;;63.50;31.07;;;;;;;0.24;100.00;100708.69;5039135;28;20702;-71
2024/03/09 02:36:48;;;;;;;65.70;31.73;;;;;;;0.23;100.00;100704.53;5028941;28;20211;-71
2024/03/09 02:39:15;;;;;;;70.80;30.80;;;;;;;0.22;100.00;100700.38;5038235;28;20204;-71
2024/03/09 02:41:42;;;;;;;71.77;31.43;;;;;;;0.20;100.00;100699.84;5036445;28;20204;-71
2024/03/09 02:44:13;;;;;;;68.47;31.37;;;;;;;0.18;100.00;100696.72;5035881;28;20690;-71
2024/03/09 02:46:40;;;;;;;66.23;30.53;;;;;;;0.16;100.00;100678.03;5034058;28;20279;-71
2024/03/09 02:49:07;;;;;;;69.30;30.60;;;;;;;0.15;100.00;100690.22;5031299;28;20232;-71
2024/03/09 02:51:33;;;;;;;70.67;31.07;;;;;;;0.14;100.00;100690.47;5034199;28;20203;-71
2024/03/09 02:53:59;;;;;;;69.37;31.00;;;;;;;0.13;100.00;100675.94;5032509;28;20227;-71
2024/03/09 02:56:27;;;;;;;66.13;30.63;;;;;;;0.11;100.00;100668.41;5043455;28;20206;-71
2024/03/09 02:58:54;;;;;;;70.23;31.60;;;;;;;0.10;100.00;100660.84;5033368;28;20963;-71
2024/03/09 03:01:22;;;;;;;72.10;32.50;;;;;;;0.08;100.00;100663.72;5035168;28;20565;-71
2024/03/09 03:03:49;;;;;;;71.27;32.43;;;;;;;0.10;100.00;100666.06;5032907;28;20226;-71
2024/03/09 03:06:18;;;;;;;65.13;31.03;;;;;;;0.08;100.00;100668.13;5032636;28;20200;-71
2024/03/09 03:08:45;;;;;;;73.03;31.43;;;;;;;0.09;100.00;100669.69;5031641;28;20707;-71
2024/03/09 03:11:14;;;;;;;75.00;32.07;;;;;;;0.10;100.00;100666.06;5039847;28;20207;-71
2024/03/09 03:13:42;;;;;;;71.80;31.37;;;;;;;0.09;100.00;100667.09;5032049;28;20211;-72
2024/03/09 03:16:11;;;;;;;71.90;31.90;;;;;;;0.09;100.00;100670.47;5039767;28;20628;-71
2024/03/09 03:18:38;;;;;;;73.87;32.47;;;;;;;0.10;100.00;100664.25;5031593;28;20201;-71
2024/03/09 03:21:06;;;;;;;77.03;34.70;;;;;;;0.13;100.00;100668.94;5034845;28;20203;-72
2024/03/09 03:23:33;;;;;;;82.10;33.40;;;;;;;0.14;100.00;100665.31;5039151;28;20235;-71
2024/03/09 03:25:59;;;;;;;75.63;32.87;;;;;;;0.14;100.00;100657.53;5041794;28;20200;-71
2024/03/09 03:28:26;;;;;;;72.53;31.97;;;;;;;0.14;100.00;100657.53;5032612;28;20215;-71
2024/03/09 03:30:52;;;;;;;84.57;35.27;;;;;;;0.15;100.00;100661.66;5031385;28;20238;-71
2024/03/09 03:33:20;;;;;;;75.57;32.50;;;;;;;0.13;100.00;100658.56;5036822;28;20567;-71
2024/03/09 03:35:47;;;;;;;78.07;32.83;;;;;;;0.12;100.00;100656.22;5032413;28;20634;-71
2024/03/09 03:38:14;;;;;;;78.47;33.03;;;;;;;0.12;100.00;100666.59;5028747;28;20562;-71
2024/03/09 03:40:40;;;;;;;68.43;31.83;;;;;;;0.11;100.00;100659.84;5036846;28;20202;-71
2024/03/09 03:43:07;;;;;;;77.57;33.73;;;;;;;0.09;100.00;100654.91;5027085;28;20195;-71
2024/03/09 03:45:33;;;;;;;72.53;32.17;;;;;;;0.08;100.00;100653.34;5031249;28;20709;-71
2024/03/09 03:48:00;;;;;;;76.27;32.80;;;;;;;0.06;100.00;100657.22;5034809;28;20200;-71
2024/03/09 03:50:26;;;;;;;78.47;34.27;;;;;;;0.04;100.00;100654.09;5032669;28;20222;-71
2024/03/09 03:52:54;;;;;;;78.93;32.37;;;;;;;0.02;100.00;100656.94;5031851;28;20212;-71
2024/03/09 03:55:22;;;;;;;74.30;34.17;;;;;;;0.01;100.00;100654.63;5031410;28;20227;-71
2024/03/09 03:57:49;;;;;;;75.47;33.40;;;;;;;-0.01;100.00;100649.69;5031270;28;20192;-72
2024/03/09 04:00:16;;;;;;;83.70;35.27;;;;;;;-0.02;100.00;100645.53;5043127;28;20693;-71
2024/03/09 04:02:42;;;;;;;77.07;32.97;;;;;;;-0.03;100.00;100641.38;5030155;28;20200;-72
2024/03/09 04:05:09;;;;;;;72.47;33.37;;;;;;;-0.04;100.00;100652.00;5031645;28;20222;-71
2024/03/09 04:07:36;;;;;;;80.20;34.30;;;;;;;-0.07;100.00;100637.72;5028856;28;20257;-71
2024/03/09 04:10:11;;;;;;;79.63;33.23;;;;;;;-0.08;100.00;100636.16;5029590;28;20246;-71
2024/03/09 04:12:40;;;;;;;78.10;34.13;;;;;;;-0.10;100.00;100637.44;5030688;28;20203;-71
2024/03/09 04:15:09;;;;;;;74.10;33.77;;;;;;;-0.10;100.00;100640.03;5036591;28;20247;-71
2024/03/09 04:17:36;;;;;;;76.33;33.87;;;;;;;-0.12;100.00;100627.31;5036862;28;20215;-71
2024/03/09 04:20:04;;;;;;;78.90;34.03;;;;;;;-0.14;100.00;100631.97;5033286;28;20192;-71
2024/03/09 04:22:31;;;;;;;73.33;33.40;;;;;;;-0.14;100.00;100620.81;5032083;28;20211;-71
2024/03/09 04:24:59;;;;;;;76.93;32.60;;;;;;;-0.16;100.00;100630.66;5032068;28;20269;-71
2024/03/09 04:27:27;;;;;;;73.80;33.03;;;;;;;-0.20;100.00;100625.19;5033928;28;20207;-71
2024/03/09 04:29:53;;;;;;;75.63;33.73;;;;;;;-0.22;100.00;100615.34;5022984;28;20303;-71
2024/03/09 04:32:19;;;;;;;78.37;33.63;;;;;;;-0.23;100.00;100617.16;5031905;28;20299;-71
2024/03/09 04:34:46;;;;;;;78.57;33.57;;;;;;;-0.22;100.00;100623.88;5039428;28;20715;-71
2024/03/09 04:37:13;;;;;;;80.90;34.77;;;;;;;-0.24;100.00;100615.59;5032350;28;20210;-71
2024/03/09 04:39:43;;;;;;;79.77;34.27;;;;;;;-0.25;100.00;100612.19;5030157;28;20211;-71
2024/03/09 04:42:10;;;;;;;79.17;36.53;;;;;;;-0.22;100.00;100612.75;5030275;28;20200;-71
2024/03/09 04:44:38;;;;;;;79.80;34.70;;;;;;;-0.24;100.00;100605.97;5031132;28;20212;-71
2024/03/09 04:47:05;;;;;;;83.20;35.97;;;;;;;-0.22;100.00;100609.13;5027701;28;20216;-71
2024/03/09 04:49:31;;;;;;;82.47;34.70;;;;;;;-0.22;100.00;100604.97;5032950;28;20223;-71
2024/03/09 04:51:57;;;;;;;85.10;35.70;;;;;;;-0.22;100.00;100600.53;5036644;28;20204;-71
2024/03/09 04:54:24;;;;;;;88.67;35.97;;;;;;;-0.23;100.00;100601.56;5030218;28;20224;-71
2024/03/09 04:56:50;;;;;;;75.37;34.90;;;;;;;-0.25;100.00;100599.22;5037927;28;20203;-71
2024/03/09 04:59:17;;;;;;;80.37;34.93;;;;;;;-0.25;100.00;100598.47;5035863;28;20208;-71
2024/03/09 05:01:45;;;;;;;86.90;35.97;;;;;;;-0.26;100.00;100600.28;5029226;28;20204;-71
2024/03/09 05:04:13;;;;;;;82.67;37.53;;;;;;;-0.27;100.00;100590.94;5030144;28;20223;-71
2024/03/09 05:06:41;;;;;;;79.53;34.10;;;;;;;-0.29;100.00;100585.19;5032108;28;21056;-71
2024/03/09 05:09:08;;;;;;;83.87;36.30;;;;;;;-0.30;100.00;100583.63;5031822;28;20188;-71
2024/03/09 05:11:34;;;;;;;87.07;35.70;;;;;;;-0.31;100.00;100586.50;5030236;28;20214;-71
2024/03/09 05:14:01;;;;;;;85.77;35.50;;;;;;;-0.30;100.00;100595.84;5030498;28;20234;-71
2024/03/09 05:16:28;;;;;;;83.17;34.23;;;;;;;-0.32;100.00;100592.72;5026914;28;20559;-71
2024/03/09 05:18:55;;;;;;;78.83;35.50;;;;;;;-0.34;100.00;100589.59;5031050;28;20204;-71
2024/03/09 05:21:23;;;;;;;78.97;35.03;;;;;;;-0.35;100.00;100591.41;5030049;28;20200;-71
2024/03/09 05:23:49;;;;;;;87.00;36.57;;;;;;;-0.36;100.00;100589.84;5028699;28;20225;-72
2024/03/09 05:26:16;;;;;;;79.40;34.87;;;;;;;-0.37;100.00;100582.31;5022915;28;20207;-71
2024/03/09 05:28:44;;;;;;;80.00;35.30;;;;;;;-0.39;100.00;100579.19;5030128;28;20242;-71
2024/03/09 05:31:26;;;;;;;90.10;36.93;;;;;;;-0.39;100.00;100584.38;5029885;28;20216;-71
2024/03/09 05:33:52;;;;;;;83.30;36.50;;;;;;;-0.39;100.00;100584.38;5035053;28;20603;-71
2024/03/09 05:36:24;;;;;;;86.67;37.17;;;;;;;-0.38;100.00;100574.81;5030134;28;20694;-71
2024/03/09 05:38:52;;;;;;;85.20;36.77;;;;;;;-0.40;100.00;100573.22;5031127;28;20238;-71
2024/03/09 05:41:19;;;;;;;89.60;37.40;;;;;;;-0.38;100.00;100572.97;5031586;28;20204;-71
2024/03/09 05:43:46;;;;;;;85.70;36.63;;;;;;;-0.38;100.00;100578.97;5031015;28;20306;-71
2024/03/09 05:46:16;;;;;;;87.00;37.10;;;;;;;-0.36;100.00;100586.50;5034165;28;20196;-71
2024/03/09 05:48:45;;;;;;;92.17;37.57;;;;;;;-0.36;100.00;100589.84;5027811;28;20215;-71
2024/03/09 05:51:14;;;;;;;87.17;37.27;;;;;;;-0.36;100.00;100584.66;5028578;28;20314;-72
2024/03/09 05:53:42;;;;;;;85.93;37.73;;;;;;;-0.33;100.00;100585.22;5029472;28;20251;-71
2024/03/09 05:56:08;;;;;;;87.70;38.43;;;;;;;-0.33;100.00;100585.22;5029857;28;20203;-71
2024/03/09 05:58:35;;;;;;;101.03;39.57;;;;;;;-0.32;100.00;100575.34;5036607;28;20204;-71
2024/03/09 06:01:01;;;;;;;92.70;38.07;;;;;;;-0.31;100.00;100579.50;5028924;28;20211;-72
2024/03/09 06:03:28;;;;;;;91.77;38.67;;;;;;;-0.29;100.00;100577.41;5032669;28;20315;-71
2024/03/09 06:05:54;;;;;;;89.63;35.80;;;;;;;-0.26;100.00;100584.69;5029115;28;20216;-72
2024/03/09 06:08:21;;;;;;;88.13;39.70;;;;;;;-0.24;100.00;100574.06;5033820;28;20203;-71
2024/03/09 06:10:49;;;;;;;90.03;38.53;;;;;;;-0.22;100.00;100574.59;5033496;28;20216;-71
2024/03/09 06:13:17;;;;;;;94.03;38.67;;;;;;;-0.20;100.00;100575.13;5033543;28;20697;-71
2024/03/09 06:15:44;;;;;;;94.17;39.30;;;;;;;-0.17;100.00;100574.59;5040985;28;20256;-71
2024/03/09 06:18:11;;;;;;;94.80;40.40;;;;;;;-0.13;100.00;100583.44;5036400;28;20289;-71
2024/03/09 06:20:41;;;;;;;97.07;38.30;;;;;;;-0.10;100.00;100578.53;5017215;28;20241;-71
2024/03/09 06:23:07;;;;;;;98.13;39.67;;;;;;;-0.05;100.00;100575.19;5030993;28;20255;-71
2024/03/09 06:25:33;;;;;;;94.00;39.93;;;;;;;-0.01;100.00;100576.22;5034813;28;20203;-71
2024/03/09 06:28:06;;;;;;;101.33;39.33;;;;;;;0.03;100.00;100577.25;5037922;28;20207;-71
2024/03/09 06:30:32;;;;;;;99.67;39.10;;;;;;;0.05;100.00;100573.38;5032821;28;20291;-72
2024/03/09 06:32:59;;;;;;;101.37;41.77;;;;;;;0.10;100.00;100580.38;5035826;28;20196;-72
2024/03/09 06:35:27;;;;;;;98.87;38.30;;;;;;;0.13;100.00;100575.47;5036304;28;20588;-72
2024/03/09 06:37:59;;;;;;;96.03;38.87;;;;;;;0.18;100.00;100575.50;5025953;28;20200;-71
2024/03/09 06:40:25;;;;;;;98.63;41.57;;;;;;;0.22;100.00;100570.56;5037093;28;20192;-71
2024/03/09 06:42:56;;;;;;;103.30;42.20;;;;;;;0.27;100.00;100565.38;5031053;28;20196;-71
2024/03/09 06:45:24;;;;;;;99.80;40.57;;;;;;;0.31;100.00;100556.81;5035447;28;20227;-72
2024/03/09 06:47:50;;;;;;;104.57;41.30;;;;;;;0.37;100.00;100565.38;5036325;28;20606;-71
2024/03/09 06:50:17;;;;;;;94.17;40.47;;;;;;;0.42;100.00;100560.19;5034953;28;20566;-71
2024/03/09 06:52:43;;;;;;;102.80;41.07;;;;;;;0.51;100.00;100567.22;5031425;28;20270;-71
2024/03/09 06:55:10;;;;;;;106.23;39.17;;;;;;;0.57;100.00;100571.38;5032913;28;20216;-71
2024/03/09 06:57:36;;;;;;;98.70;39.47;;;;;;;0.62;100.00;100562.78;5031617;28;20208;-71
2024/03/09 07:00:11;;;;;;;102.40;41.43;;;;;;;0.70;100.00;100562.28;5036708;28;20200;-71
2024/03/09 07:02:39;;;;;;;93.23;40.30;;;;;;;0.76;100.00;100559.41;5037591;28;20195;-71
2024/03/09 07:05:09;;;;;;;111.40;40.23;;;;;;;0.86;100.00;100556.03;5038071;28;20230;-71
2024/03/09 07:07:35;;;;;;;97.50;41.40;;;;;;;0.94;100.00;100552.91;5033978;28;20258;-71
2024/03/09 07:10:02;;;;;;;97.50;40.23;;;;;;;1.01;100.00;100558.59;5035376;28;20214;-71
2024/03/09 07:12:28;;;;;;;106.87;40.73;;;;;;;1.10;100.00;100554.44;5038806;28;20214;-72
2024/03/09 07:14:54;;;;;;;106.07;40.77;;;;;;;1.20;100.00;100562.22;5031720;28;20236;-71
2024/03/09 07:17:21;;;;;;;115.13;43.23;;;;;;;1.28;100.00;100557.25;5030701;28;20208;-71
2024/03/09 07:19:48;;;;;;;108.67;43.33;;;;;;;1.38;100.00;100556.41;5030448;28;20196;-71
2024/03/09 07:22:15;;;;;;;98.53;40.20;;;;;;;1.48;100.00;100561.59;5023006;28;20219;-71
2024/03/09 07:24:42;;;;;;;107.30;43.00;;;;;;;1.57;100.00;100563.38;5026770;28;20314;-71
2024/03/09 07:27:08;;;;;;;104.03;42.87;;;;;;;1.70;100.00;100554.22;5026119;28;20277;-72
2024/03/09 07:29:36;;;;;;;106.10;42.07;;;;;;;1.82;100.00;100552.84;5023870;28;20207;-72
2024/03/09 07:32:06;;;;;;;106.50;42.97;;;;;;;1.96;100.00;100566.06;5024745;28;20223;-72
2024/03/09 07:34:33;;;;;;;107.90;42.50;;;;;;;2.05;100.00;100549.63;5024488;28;20307;-72
2024/03/09 07:37:01;;;;;;;103.87;44.40;;;;;;;2.18;100.00;100540.41;5022879;28;20275;-72
2024/03/09 07:39:30;;;;;;;113.43;43.40;;;;;;;2.27;100.00;100539.56;5023306;28;20295;-72
2024/03/09 07:41:58;;;;;;;102.53;44.00;;;;;;;2.34;100.00;100541.88;5022931;28;20200;-72
2024/03/09 07:44:24;;;;;;;92.50;39.97;;;;;;;2.41;100.00;100539.72;5023487;28;20220;-72
2024/03/09 07:46:55;;;;;;;95.00;39.23;;;;;;;2.46;100.00;100531.88;5023466;28;20209;-72
2024/03/09 07:49:22;;;;;;;87.83;37.50;;;;;;;2.49;100.00;100529.50;5026370;28;20223;-72
2024/03/09 07:51:48;;;;;;;88.27;38.10;;;;;;;2.56;100.00;100521.34;5022588;28;20247;-72
2024/03/09 07:54:16;;;;;;;88.57;36.87;;;;;;;2.62;100.00;100522.88;5025346;28;20289;-72
2024/03/09 07:56:43;;;;;;;78.10;36.37;;;;;;;2.70;100.00;100532.72;5023576;28;20234;-72
2024/03/09 07:59:11;;;;;;;85.87;35.60;;;;;;;2.79;100.00;100518.81;5022876;28;20207;-72
2024/03/09 08:01:38;;;;;;;71.60;33.37;;;;;;;2.90;100.00;100514.28;5022285;28;20273;-72
2024/03/09 08:04:05;;;;;;;73.07;35.13;;;;;;;2.97;100.00;100523.34;5022575;28;20224;-72
2024/03/09 08:06:31;;;;;;;72.03;32.43;;;;;;;3.07;100.00;100528.41;5022487;28;20258;-72
2024/03/09 08:08:58;;;;;;;68.87;33.57;;;;;;;3.18;100.00;100524.66;5021643;28;21153;-72
2024/03/09 08:11:26;;;;;;;69.80;32.63;;;;;;;3.30;100.00;100512.00;5019952;28;20219;-72
2024/03/09 08:13:52;;;;;;;64.00;32.47;;;;;;;3.42;100.00;100520.19;5019799;28;20224;-72
2024/03/09 08:16:19;;;;;;;64.40;31.60;;;;;;;3.53;100.00;100524.25;5019463;28;20552;-72
2024/03/09 08:18:46;;;;;;;62.33;31.03;;;;;;;3.64;100.00;100515.22;5018597;28;20287;-72
2024/03/09 08:21:13;;;;;;;64.57;31.97;;;;;;;3.78;100.00;100515.31;5019194;28;20745;-72
2024/03/09 08:23:42;;;;;;;63.33;29.93;;;;;;;3.87;100.00;100511.78;5016966;28;20310;-72
2024/03/09 08:26:08;;;;;;;56.07;29.27;;;;;;;4.01;100.00;100501.41;5018411;28;20243;-72
2024/03/09 08:28:36;;;;;;;59.00;28.47;;;;;;;4.13;100.00;100493.91;5016326;28;20724;-72
2024/03/09 08:31:03;;;;;;;52.37;26.53;;;;;;;4.23;100.00;100491.91;5016293;28;20786;-72
2024/03/09 08:33:30;;;;;;;52.77;27.13;;;;;;;4.35;100.00;100491.47;5015330;28;20230;-72
2024/03/09 08:35:58;;;;;;;52.20;27.00;;;;;;;4.45;100.00;100488.69;5016408;28;20211;-72
2024/03/09 08:38:24;;;;;;;53.80;27.43;;;;;;;4.54;100.00;100492.97;5015977;28;20693;-72
2024/03/09 08:40:52;;;;;;;44.20;24.20;;;;;;;4.64;100.00;100489.41;5015839;28;20768;-72
2024/03/09 08:43:19;;;;;;;48.67;25.47;;;;;;;4.73;100.00;100480.63;5014694;28;20208;-72
2024/03/09 08:45:50;;;;;;;50.20;26.40;;;;;;;4.85;100.00;100486.16;5014522;28;20239;-72
2024/03/09 08:48:19;;;;;;;51.90;26.57;;;;;;;4.94;100.00;100486.25;5014113;28;20208;-72
2024/03/09 08:50:47;;;;;;;53.57;25.93;;;;;;;5.04;100.00;100478.22;5015156;28;20242;-72
2024/03/09 08:53:17;;;;;;;49.50;26.30;;;;;;;5.13;100.00;100479.09;5013993;28;20709;-72
2024/03/09 08:55:44;;;;;;;46.13;24.37;;;;;;;5.25;100.00;100467.06;5012680;28;20282;-72
2024/03/09 08:58:10;;;;;;;44.70;22.67;;;;;;;5.38;100.00;100455.03;5013413;28;20212;-72
2024/03/09 09:00:37;;;;;;;44.50;23.80;;;;;;;5.50;100.00;100450.81;5013724;28;20563;-72
2024/03/09 09:03:06;;;;;;;44.10;23.77;;;;;;;5.63;100.00;100446.59;5008595;28;20208;-72
2024/03/09 09:05:34;;;;;;;45.83;23.83;;;;;;;5.76;100.00;100451.81;5013005;28;20218;-72
2024/03/09 09:08:00;;;;;;;47.50;24.43;;;;;;;5.86;100.00;100451.59;5009777;28;20207;-72
2024/03/09 09:10:26;;;;;;;40.03;23.20;;;;;;;6.00;100.00;100454.19;5011581;28;20211;-72
2024/03/09 09:12:54;;;;;;;42.03;21.60;;;;;;;6.12;100.00;100449.19;5008488;28;20211;-72
2024/03/09 09:15:20;;;;;;;39.17;21.83;;;;;;;6.23;100.00;100450.47;5010114;28;20267;-72
2024/03/09 09:17:46;;;;;;;41.43;21.53;;;;;;;6.32;100.00;100456.56;5009978;28;20203;-72
2024/03/09 09:20:15;;;;;;;40.20;20.57;;;;;;;6.43;100.00;100439.50;5009420;28;20233;-72
2024/03/09 09:22:42;;;;;;;36.77;20.63;;;;;;;6.52;100.00;100437.69;5008515;28;20216;-72
2024/03/09 09:25:11;;;;;;;37.70;21.53;;;;;;;6.60;100.00;100429.88;5008746;28;20583;-72
2024/03/09 09:27:38;;;;;;;43.53;22.23;;;;;;;6.70;100.00;100434.06;5009983;28;20805;-72
2024/03/09 09:30:05;;;;;;;39.23;22.13;;;;;;;6.76;100.00;100428.38;5008788;28;20214;-72
2024/03/09 09:32:32;;;;;;;38.93;22.23;;;;;;;6.84;100.00;100435.50;5009077;28;20900;-72
2024/03/09 09:35:02;;;;;;;38.50;22.07;;;;;;;6.93;100.00;100432.91;5007570;28;20631;-72
2024/03/09 09:37:30;;;;;;;37.07;20.70;;;;;;;6.99;100.00;100432.47;5008691;28;20287;-72
2024/03/09 09:39:56;;;;;;;36.43;20.90;;;;;;;7.06;100.00;100424.94;5008642;28;20216;-72
2024/03/09 09:42:29;;;;;;;38.13;20.73;;;;;;;7.11;100.00;100430.03;5010663;28;20210;-72
2024/03/09 09:44:56;;;;;;;41.17;22.27;;;;;;;7.15;100.00;100430.19;5010543;28;20220;-72
2024/03/09 09:47:25;;;;;;;35.67;20.80;;;;;;;7.20;100.00;100424.81;5012199;28;20211;-72
2024/03/09 09:49:54;;;;;;;37.30;19.80;;;;;;;7.23;100.00;100416.28;5010933;28;20270;-72
2024/03/09 09:52:22;;;;;;;31.80;18.30;;;;;;;7.26;100.00;100413.81;5011155;28;20282;-72
2024/03/09 09:54:49;;;;;;;31.83;18.60;;;;;;;7.29;100.00;100410.59;5009628;28;20739;-72
2024/03/09 09:57:17;;;;;;;31.53;18.77;;;;;;;7.32;100.00;100415.25;5010915;28;21153;-72
2024/03/09 09:59:48;;;;;;;34.20;19.60;;;;;;;7.33;100.00;100406.28;5010903;28;20658;-72
2024/03/09 10:02:16;;;;;;;31.90;19.03;;;;;;;7.35;100.00;100412.00;5011078;28;20660;-72
2024/03/09 10:04:43;;;;;;;29.90;17.90;;;;;;;7.39;100.00;100399.78;5009875;28;21150;-72
2024/03/09 10:07:10;;;;;;;31.97;18.37;;;;;;;7.42;100.00;100395.78;5010858;28;20216;-72
2024/03/09 10:09:37;;;;;;;30.50;16.70;;;;;;;7.45;100.00;100387.28;5010831;28;20304;-72
2024/03/09 10:12:05;;;;;;;30.47;17.73;;;;;;;7.48;100.00;100392.69;5011230;28;21862;-72
2024/03/09 10:14:32;;;;;;;27.77;17.10;;;;;;;7.53;100.00;100387.28;5010667;28;20238;-72
2024/03/09 10:17:02;;;;;;;28.97;17.33;;;;;;;7.57;100.00;100390.81;5010984;28;20210;-72
2024/03/09 10:19:28;;;;;;;27.53;16.43;;;;;;;7.61;100.00;100388.38;5009383;28;20194;-72
2024/03/09 10:21:55;;;;;;;28.10;16.20;;;;;;;7.63;100.00;100388.81;5010945;28;20209;-72
2024/03/09 10:24:23;;;;;;;25.47;15.20;;;;;;;7.68;100.00;100383.41;5010178;28;20835;-72
2024/03/09 10:26:49;;;;;;;26.57;14.70;;;;;;;7.72;100.00;100389.59;5009643;28;21033;-72
2024/03/09 10:29:26;;;;;;;24.80;15.40;;;;;;;7.75;100.00;100387.13;5008889;28;20210;-72
2024/03/09 10:31:54;;;;;;;25.30;15.10;;;;;;;7.78;100.00;100383.09;5006647;28;20215;-72
2024/03/09 10:34:25;;;;;;;26.53;14.93;;;;;;;7.81;100.00;100388.50;5005814;28;20409;-72
2024/03/09 10:36:53;;;;;;;24.63;15.07;;;;;;;7.83;100.00;100396.84;5007893;28;20193;-72
2024/03/09 10:39:20;;;;;;;24.63;14.90;;;;;;;7.86;100.00;100395.44;5008704;28;20208;-72
2024/03/09 10:41:54;;;;;;;27.03;14.87;;;;;;;7.86;100.00;100384.94;5005723;28;20226;-73
2024/03/09 10:44:20;;;;;;;25.43;14.40;;;;;;;7.88;100.00;100390.66;5006875;28;20754;-72
2024/03/09 10:46:48;;;;;;;26.30;15.73;;;;;;;7.92;100.00;100394.97;5007843;28;20258;-72
2024/03/09 10:49:21;;;;;;;26.80;15.53;;;;;;;7.90;100.00;100381.38;5006539;28;20215;-72
2024/03/09 10:51:52;;;;;;;26.67;14.57;;;;;;;7.93;100.00;100377.34;5002956;28;20234;-72
2024/03/09 10:54:21;;;;;;;24.90;13.67;;;;;;;7.95;100.00;100375.19;5004366;28;20226;-72
2024/03/09 10:56:51;;;;;;;23.37;14.20;;;;;;;7.96;100.00;100367.00;5007419;28;20204;-72
2024/03/09 10:59:21;;;;;;;23.23;13.10;;;;;;;7.99;100.00;100368.22;4992838;28;20608;-72
2024/03/09 11:01:50;;;;;;;25.83;14.50;;;;;;;8.01;100.00;100372.06;5008341;28;20209;-72
2024/03/09 11:04:20;;;;;;;26.53;15.23;;;;;;;8.03;100.00;100375.16;5007190;28;20241;-72
2024/03/09 11:06:47;;;;;;;25.23;14.43;;;;;;;8.08;100.00;100371.59;5008020;28;20245;-72
2024/03/09 11:09:15;;;;;;;28.33;15.70;;;;;;;8.09;100.00;100363.41;5006593;28;20215;-72